sensor_id;sensor_type;location;lat;lon;timestamp;P1;durP1;ratioP1;P2;durP2;ratioP2
8225;SDS011;4154;48.810;9.012;2023-01-19T00:00:06;6.83;;;6.10;;
8225;SDS011;4154;48.810;9.012;2023-01-19T00:02:34;7.03;;;5.73;;
8225;SDS011;4154;48.810;9.012;2023-01-19T00:05:01;7.83;;;6.37;;
8225;SDS011;4154;48.810;9.012;2023-01-19T00:07:28;6.60;;;6.00;;
8225;SDS011;4154;48.810;9.012;2023-01-19T00:09:55;6.67;;;5.97;;
8225;SDS011;4154;48.810;9.012;2023-01-19T00:12:21;7.00;;;5.87;;
8225;SDS011;4154;48.810;9.012;2023-01-19T00:14:47;6.83;;;5.77;;
8225;SDS011;4154;48.810;9.012;2023-01-19T00:17:13;9.20;;;6.13;;
8225;SDS011;4154;48.810;9.012;2023-01-19T00:19:40;6.27;;;5.67;;
8225;SDS011;4154;48.810;9.012;2023-01-19T00:22:06;5.63;;;4.93;;
8225;SDS011;4154;48.810;9.012;2023-01-19T00:24:31;6.63;;;5.83;;
8225;SDS011;4154;48.810;9.012;2023-01-19T00:26:58;7.00;;;5.83;;
8225;SDS011;4154;48.810;9.012;2023-01-19T00:29:27;6.47;;;5.37;;
8225;SDS011;4154;48.810;9.012;2023-01-19T00:31:58;7.07;;;5.77;;
8225;SDS011;4154;48.810;9.012;2023-01-19T00:34:25;6.63;;;5.60;;
8225;SDS011;4154;48.810;9.012;2023-01-19T00:36:51;7.17;;;5.97;;
8225;SDS011;4154;48.810;9.012;2023-01-19T00:39:17;6.40;;;5.70;;
8225;SDS011;4154;48.810;9.012;2023-01-19T00:41:43;6.20;;;5.50;;
8225;SDS011;4154;48.810;9.012;2023-01-19T00:44:27;6.27;;;5.67;;
8225;SDS011;4154;48.810;9.012;2023-01-19T00:46:53;6.60;;;5.90;;
8225;SDS011;4154;48.810;9.012;2023-01-19T00:49:19;7.23;;;6.03;;
8225;SDS011;4154;48.810;9.012;2023-01-19T00:51:45;7.53;;;6.73;;
8225;SDS011;4154;48.810;9.012;2023-01-19T00:54:11;9.30;;;7.20;;
8225;SDS011;4154;48.810;9.012;2023-01-19T00:56:36;7.97;;;6.23;;
8225;SDS011;4154;48.810;9.012;2023-01-19T00:59:02;7.33;;;6.43;;
8225;SDS011;4154;48.810;9.012;2023-01-19T01:01:28;7.83;;;6.57;;
8225;SDS011;4154;48.810;9.012;2023-01-19T01:03:55;6.73;;;6.03;;
8225;SDS011;4154;48.810;9.012;2023-01-19T01:06:21;8.70;;;6.13;;
8225;SDS011;4154;48.810;9.012;2023-01-19T01:08:48;6.90;;;6.10;;
8225;SDS011;4154;48.810;9.012;2023-01-19T01:11:14;8.30;;;6.63;;
8225;SDS011;4154;48.810;9.012;2023-01-19T01:13:40;10.13;;;6.73;;
8225;SDS011;4154;48.810;9.012;2023-01-19T01:16:06;7.03;;;6.33;;
8225;SDS011;4154;48.810;9.012;2023-01-19T01:18:33;8.00;;;6.50;;
8225;SDS011;4154;48.810;9.012;2023-01-19T01:21:00;6.97;;;6.27;;
8225;SDS011;4154;48.810;9.012;2023-01-19T01:23:27;8.17;;;6.40;;
8225;SDS011;4154;48.810;9.012;2023-01-19T01:25:53;7.50;;;6.13;;
8225;SDS011;4154;48.810;9.012;2023-01-19T01:28:19;7.40;;;6.60;;
8225;SDS011;4154;48.810;9.012;2023-01-19T01:30:45;6.83;;;6.13;;
8225;SDS011;4154;48.810;9.012;2023-01-19T01:33:12;7.13;;;6.43;;
8225;SDS011;4154;48.810;9.012;2023-01-19T01:35:38;7.83;;;6.60;;
8225;SDS011;4154;48.810;9.012;2023-01-19T01:38:04;8.07;;;6.47;;
8225;SDS011;4154;48.810;9.012;2023-01-19T01:40:30;8.87;;;6.47;;
8225;SDS011;4154;48.810;9.012;2023-01-19T01:42:56;10.10;;;7.83;;
8225;SDS011;4154;48.810;9.012;2023-01-19T01:45:29;9.20;;;7.40;;
8225;SDS011;4154;48.810;9.012;2023-01-19T01:48:01;8.60;;;7.07;;
8225;SDS011;4154;48.810;9.012;2023-01-19T01:50:31;8.63;;;7.07;;
8225;SDS011;4154;48.810;9.012;2023-01-19T01:53:10;8.83;;;7.20;;
8225;SDS011;4154;48.810;9.012;2023-01-19T01:55:41;8.03;;;6.50;;
8225;SDS011;4154;48.810;9.012;2023-01-19T01:58:12;8.37;;;6.17;;
8225;SDS011;4154;48.810;9.012;2023-01-19T02:00:39;6.90;;;6.20;;
8225;SDS011;4154;48.810;9.012;2023-01-19T02:03:24;8.57;;;6.53;;
8225;SDS011;4154;48.810;9.012;2023-01-19T02:05:50;7.53;;;6.57;;
8225;SDS011;4154;48.810;9.012;2023-01-19T02:08:32;7.17;;;6.43;;
8225;SDS011;4154;48.810;9.012;2023-01-19T02:11:37;7.70;;;5.90;;
8225;SDS011;4154;48.810;9.012;2023-01-19T02:14:22;7.50;;;5.83;;
8225;SDS011;4154;48.810;9.012;2023-01-19T02:16:48;7.33;;;6.40;;
8225;SDS011;4154;48.810;9.012;2023-01-19T02:19:25;8.53;;;5.97;;
8225;SDS011;4154;48.810;9.012;2023-01-19T02:22:11;6.30;;;5.70;;
8225;SDS011;4154;48.810;9.012;2023-01-19T02:25:01;8.37;;;5.97;;
8225;SDS011;4154;48.810;9.012;2023-01-19T02:27:31;6.57;;;5.97;;
8225;SDS011;4154;48.810;9.012;2023-01-19T02:29:58;7.60;;;6.03;;
8225;SDS011;4154;48.810;9.012;2023-01-19T02:32:27;6.03;;;5.43;;
8225;SDS011;4154;48.810;9.012;2023-01-19T02:34:53;6.63;;;5.80;;
8225;SDS011;4154;48.810;9.012;2023-01-19T02:37:20;6.73;;;5.77;;
8225;SDS011;4154;48.810;9.012;2023-01-19T02:39:47;6.93;;;5.87;;
8225;SDS011;4154;48.810;9.012;2023-01-19T02:42:18;6.70;;;5.40;;
8225;SDS011;4154;48.810;9.012;2023-01-19T02:44:51;8.30;;;5.83;;
8225;SDS011;4154;48.810;9.012;2023-01-19T02:47:21;6.80;;;5.47;;
8225;SDS011;4154;48.810;9.012;2023-01-19T02:49:54;6.17;;;5.47;;
8225;SDS011;4154;48.810;9.012;2023-01-19T02:52:25;6.43;;;5.47;;
8225;SDS011;4154;48.810;9.012;2023-01-19T03:03:50;6.17;;;5.57;;
8225;SDS011;4154;48.810;9.012;2023-01-19T03:06:43;6.03;;;5.43;;
8225;SDS011;4154;48.810;9.012;2023-01-19T03:12:30;5.70;;;5.10;;
8225;SDS011;4154;48.810;9.012;2023-01-19T03:15:21;6.13;;;5.10;;
8225;SDS011;4154;48.810;9.012;2023-01-19T03:18:08;5.87;;;5.27;;
8225;SDS011;4154;48.810;9.012;2023-01-19T03:20:38;6.53;;;5.63;;
8225;SDS011;4154;48.810;9.012;2023-01-19T03:23:06;6.20;;;5.30;;
8225;SDS011;4154;48.810;9.012;2023-01-19T03:25:36;6.27;;;5.47;;
8225;SDS011;4154;48.810;9.012;2023-01-19T03:28:06;6.87;;;5.90;;
8225;SDS011;4154;48.810;9.012;2023-01-19T03:30:34;6.80;;;5.53;;
8225;SDS011;4154;48.810;9.012;2023-01-19T03:33:07;5.47;;;4.97;;
8225;SDS011;4154;48.810;9.012;2023-01-19T03:35:46;6.03;;;5.17;;
8225;SDS011;4154;48.810;9.012;2023-01-19T03:38:18;6.13;;;5.23;;
8225;SDS011;4154;48.810;9.012;2023-01-19T03:40:51;6.67;;;5.17;;
8225;SDS011;4154;48.810;9.012;2023-01-19T03:43:25;7.10;;;5.03;;
8225;SDS011;4154;48.810;9.012;2023-01-19T03:45:52;5.67;;;5.07;;
8225;SDS011;4154;48.810;9.012;2023-01-19T03:48:20;6.23;;;5.07;;
8225;SDS011;4154;48.810;9.012;2023-01-19T03:50:47;7.23;;;5.13;;
8225;SDS011;4154;48.810;9.012;2023-01-19T03:53:15;7.43;;;5.13;;
8225;SDS011;4154;48.810;9.012;2023-01-19T03:55:43;5.77;;;4.93;;
8225;SDS011;4154;48.810;9.012;2023-01-19T03:58:11;6.73;;;5.40;;
8225;SDS011;4154;48.810;9.012;2023-01-19T04:00:38;7.43;;;5.53;;
8225;SDS011;4154;48.810;9.012;2023-01-19T04:03:05;6.10;;;5.27;;
8225;SDS011;4154;48.810;9.012;2023-01-19T04:05:37;6.23;;;5.30;;
8225;SDS011;4154;48.810;9.012;2023-01-19T04:08:03;5.47;;;4.93;;
8225;SDS011;4154;48.810;9.012;2023-01-19T04:10:30;5.47;;;4.97;;
8225;SDS011;4154;48.810;9.012;2023-01-19T04:12:59;6.07;;;4.90;;
8225;SDS011;4154;48.810;9.012;2023-01-19T04:15:26;6.10;;;5.47;;
8225;SDS011;4154;48.810;9.012;2023-01-19T04:17:53;5.67;;;4.87;;
8225;SDS011;4154;48.810;9.012;2023-01-19T04:20:21;6.87;;;5.40;;
8225;SDS011;4154;48.810;9.012;2023-01-19T04:22:47;6.20;;;4.60;;
8225;SDS011;4154;48.810;9.012;2023-01-19T04:25:13;5.50;;;5.00;;
8225;SDS011;4154;48.810;9.012;2023-01-19T04:27:40;4.90;;;4.40;;
8225;SDS011;4154;48.810;9.012;2023-01-19T04:30:06;6.40;;;5.07;;
8225;SDS011;4154;48.810;9.012;2023-01-19T04:32:34;5.57;;;4.90;;
8225;SDS011;4154;48.810;9.012;2023-01-19T04:35:00;5.50;;;4.60;;
8225;SDS011;4154;48.810;9.012;2023-01-19T04:37:26;5.90;;;4.40;;
8225;SDS011;4154;48.810;9.012;2023-01-19T04:39:52;7.53;;;4.50;;
8225;SDS011;4154;48.810;9.012;2023-01-19T04:42:18;5.87;;;4.80;;
8225;SDS011;4154;48.810;9.012;2023-01-19T04:44:44;5.80;;;5.00;;
8225;SDS011;4154;48.810;9.012;2023-01-19T04:47:10;5.20;;;4.70;;
8225;SDS011;4154;48.810;9.012;2023-01-19T04:49:36;5.30;;;4.57;;
8225;SDS011;4154;48.810;9.012;2023-01-19T04:52:03;5.53;;;4.73;;
8225;SDS011;4154;48.810;9.012;2023-01-19T04:54:30;5.43;;;4.70;;
8225;SDS011;4154;48.810;9.012;2023-01-19T04:56:56;5.07;;;4.53;;
8225;SDS011;4154;48.810;9.012;2023-01-19T04:59:22;5.97;;;5.00;;
8225;SDS011;4154;48.810;9.012;2023-01-19T05:01:48;5.17;;;4.67;;
8225;SDS011;4154;48.810;9.012;2023-01-19T05:04:14;5.23;;;4.73;;
8225;SDS011;4154;48.810;9.012;2023-01-19T05:06:40;7.30;;;5.13;;
8225;SDS011;4154;48.810;9.012;2023-01-19T05:09:06;5.77;;;4.97;;
8225;SDS011;4154;48.810;9.012;2023-01-19T05:11:33;6.37;;;5.40;;
8225;SDS011;4154;48.810;9.012;2023-01-19T05:13:59;5.70;;;4.83;;
8225;SDS011;4154;48.810;9.012;2023-01-19T05:16:25;5.77;;;4.90;;
8225;SDS011;4154;48.810;9.012;2023-01-19T05:18:51;5.30;;;4.80;;
8225;SDS011;4154;48.810;9.012;2023-01-19T05:21:17;5.07;;;4.57;;
8225;SDS011;4154;48.810;9.012;2023-01-19T05:23:44;6.80;;;5.10;;
8225;SDS011;4154;48.810;9.012;2023-01-19T05:26:10;5.53;;;4.90;;
8225;SDS011;4154;48.810;9.012;2023-01-19T05:28:37;5.90;;;4.70;;
8225;SDS011;4154;48.810;9.012;2023-01-19T05:31:03;6.03;;;4.87;;
8225;SDS011;4154;48.810;9.012;2023-01-19T05:33:29;5.40;;;4.90;;
8225;SDS011;4154;48.810;9.012;2023-01-19T05:35:55;6.20;;;4.73;;
8225;SDS011;4154;48.810;9.012;2023-01-19T05:38:21;6.47;;;4.90;;
8225;SDS011;4154;48.810;9.012;2023-01-19T05:40:48;5.80;;;5.10;;
8225;SDS011;4154;48.810;9.012;2023-01-19T05:43:20;6.93;;;5.10;;
8225;SDS011;4154;48.810;9.012;2023-01-19T05:45:45;5.27;;;4.63;;
8225;SDS011;4154;48.810;9.012;2023-01-19T05:48:11;5.33;;;4.83;;
8225;SDS011;4154;48.810;9.012;2023-01-19T05:50:37;6.30;;;4.77;;
8225;SDS011;4154;48.810;9.012;2023-01-19T05:53:03;6.63;;;5.27;;
8225;SDS011;4154;48.810;9.012;2023-01-19T05:55:28;6.07;;;4.87;;
8225;SDS011;4154;48.810;9.012;2023-01-19T05:57:54;5.67;;;5.03;;
8225;SDS011;4154;48.810;9.012;2023-01-19T06:00:20;5.30;;;4.80;;
8225;SDS011;4154;48.810;9.012;2023-01-19T06:02:46;6.40;;;4.73;;
8225;SDS011;4154;48.810;9.012;2023-01-19T06:05:13;6.27;;;5.57;;
8225;SDS011;4154;48.810;9.012;2023-01-19T06:07:40;6.77;;;5.27;;
8225;SDS011;4154;48.810;9.012;2023-01-19T06:10:06;6.70;;;4.87;;
8225;SDS011;4154;48.810;9.012;2023-01-19T06:12:34;5.97;;;5.10;;
8225;SDS011;4154;48.810;9.012;2023-01-19T06:15:01;6.07;;;5.27;;
8225;SDS011;4154;48.810;9.012;2023-01-19T06:17:27;6.00;;;5.07;;
8225;SDS011;4154;48.810;9.012;2023-01-19T06:19:55;6.43;;;5.23;;
8225;SDS011;4154;48.810;9.012;2023-01-19T06:22:21;6.47;;;5.13;;
8225;SDS011;4154;48.810;9.012;2023-01-19T06:24:48;5.50;;;5.00;;
8225;SDS011;4154;48.810;9.012;2023-01-19T06:27:14;6.13;;;5.53;;
8225;SDS011;4154;48.810;9.012;2023-01-19T06:29:40;6.43;;;5.63;;
8225;SDS011;4154;48.810;9.012;2023-01-19T06:32:06;6.90;;;5.50;;
8225;SDS011;4154;48.810;9.012;2023-01-19T06:34:32;6.63;;;5.60;;
8225;SDS011;4154;48.810;9.012;2023-01-19T06:36:58;6.97;;;5.73;;
8225;SDS011;4154;48.810;9.012;2023-01-19T06:39:24;5.90;;;5.30;;
8225;SDS011;4154;48.810;9.012;2023-01-19T06:41:51;6.47;;;5.13;;
8225;SDS011;4154;48.810;9.012;2023-01-19T06:44:17;5.70;;;5.20;;
8225;SDS011;4154;48.810;9.012;2023-01-19T06:46:43;6.23;;;5.27;;
8225;SDS011;4154;48.810;9.012;2023-01-19T06:49:09;6.00;;;5.37;;
8225;SDS011;4154;48.810;9.012;2023-01-19T06:51:37;5.90;;;5.30;;
8225;SDS011;4154;48.810;9.012;2023-01-19T06:54:02;8.53;;;6.27;;
8225;SDS011;4154;48.810;9.012;2023-01-19T06:56:29;6.27;;;5.67;;
8225;SDS011;4154;48.810;9.012;2023-01-19T06:58:56;6.23;;;5.13;;
8225;SDS011;4154;48.810;9.012;2023-01-19T07:01:22;6.30;;;5.70;;
8225;SDS011;4154;48.810;9.012;2023-01-19T07:03:48;6.23;;;5.50;;
8225;SDS011;4154;48.810;9.012;2023-01-19T07:06:16;7.27;;;5.43;;
8225;SDS011;4154;48.810;9.012;2023-01-19T07:08:45;6.40;;;5.37;;
8225;SDS011;4154;48.810;9.012;2023-01-19T07:11:11;6.83;;;5.50;;
8225;SDS011;4154;48.810;9.012;2023-01-19T07:13:38;6.83;;;5.60;;
8225;SDS011;4154;48.810;9.012;2023-01-19T07:16:08;6.03;;;5.10;;
8225;SDS011;4154;48.810;9.012;2023-01-19T07:18:37;6.70;;;5.57;;
8225;SDS011;4154;48.810;9.012;2023-01-19T07:21:04;6.43;;;5.73;;
8225;SDS011;4154;48.810;9.012;2023-01-19T07:23:31;5.77;;;5.20;;
8225;SDS011;4154;48.810;9.012;2023-01-19T07:25:58;5.93;;;5.30;;
8225;SDS011;4154;48.810;9.012;2023-01-19T07:28:25;6.20;;;5.40;;
8225;SDS011;4154;48.810;9.012;2023-01-19T07:30:53;5.47;;;4.97;;
8225;SDS011;4154;48.810;9.012;2023-01-19T07:33:19;5.80;;;5.20;;
8225;SDS011;4154;48.810;9.012;2023-01-19T07:35:48;6.30;;;5.70;;
8225;SDS011;4154;48.810;9.012;2023-01-19T07:38:15;6.57;;;5.17;;
8225;SDS011;4154;48.810;9.012;2023-01-19T07:40:42;5.73;;;5.10;;
8225;SDS011;4154;48.810;9.012;2023-01-19T07:43:11;5.50;;;5.00;;
8225;SDS011;4154;48.810;9.012;2023-01-19T07:45:38;5.23;;;4.73;;
8225;SDS011;4154;48.810;9.012;2023-01-19T07:48:04;5.70;;;4.90;;
8225;SDS011;4154;48.810;9.012;2023-01-19T07:50:30;5.97;;;4.63;;
8225;SDS011;4154;48.810;9.012;2023-01-19T07:52:56;5.50;;;4.90;;
8225;SDS011;4154;48.810;9.012;2023-01-19T07:55:28;5.60;;;5.00;;
8225;SDS011;4154;48.810;9.012;2023-01-19T07:57:53;5.77;;;4.80;;
8225;SDS011;4154;48.810;9.012;2023-01-19T08:00:20;5.47;;;4.80;;
8225;SDS011;4154;48.810;9.012;2023-01-19T08:02:48;5.57;;;4.90;;
8225;SDS011;4154;48.810;9.012;2023-01-19T08:05:16;5.93;;;4.80;;
8225;SDS011;4154;48.810;9.012;2023-01-19T08:07:43;5.07;;;4.40;;
8225;SDS011;4154;48.810;9.012;2023-01-19T08:10:11;5.43;;;4.80;;
8225;SDS011;4154;48.810;9.012;2023-01-19T08:12:38;5.67;;;4.60;;
8225;SDS011;4154;48.810;9.012;2023-01-19T08:15:06;4.73;;;4.23;;
8225;SDS011;4154;48.810;9.012;2023-01-19T08:17:35;5.57;;;4.20;;
8225;SDS011;4154;48.810;9.012;2023-01-19T08:20:02;5.93;;;4.80;;
8225;SDS011;4154;48.810;9.012;2023-01-19T08:22:30;5.73;;;4.83;;
8225;SDS011;4154;48.810;9.012;2023-01-19T08:24:56;6.90;;;4.67;;
8225;SDS011;4154;48.810;9.012;2023-01-19T08:27:22;4.83;;;4.30;;
8225;SDS011;4154;48.810;9.012;2023-01-19T08:29:48;4.57;;;4.17;;
8225;SDS011;4154;48.810;9.012;2023-01-19T08:32:14;4.80;;;4.30;;
8225;SDS011;4154;48.810;9.012;2023-01-19T08:34:40;4.57;;;4.17;;
8225;SDS011;4154;48.810;9.012;2023-01-19T08:37:06;5.60;;;3.57;;
8225;SDS011;4154;48.810;9.012;2023-01-19T08:39:32;5.03;;;4.00;;
8225;SDS011;4154;48.810;9.012;2023-01-19T08:41:58;4.93;;;4.00;;
8225;SDS011;4154;48.810;9.012;2023-01-19T08:44:25;4.63;;;4.13;;
8225;SDS011;4154;48.810;9.012;2023-01-19T08:46:51;4.67;;;4.27;;
8225;SDS011;4154;48.810;9.012;2023-01-19T08:49:18;4.33;;;3.93;;
8225;SDS011;4154;48.810;9.012;2023-01-19T08:51:44;4.57;;;4.17;;
8225;SDS011;4154;48.810;9.012;2023-01-19T08:54:13;5.00;;;4.50;;
8225;SDS011;4154;48.810;9.012;2023-01-19T08:56:40;4.37;;;3.97;;
8225;SDS011;4154;48.810;9.012;2023-01-19T08:59:07;4.80;;;4.20;;
8225;SDS011;4154;48.810;9.012;2023-01-19T09:01:33;4.40;;;4.00;;
8225;SDS011;4154;48.810;9.012;2023-01-19T09:04:01;4.77;;;4.27;;
8225;SDS011;4154;48.810;9.012;2023-01-19T09:06:27;4.70;;;4.20;;
8225;SDS011;4154;48.810;9.012;2023-01-19T09:08:53;4.80;;;4.30;;
8225;SDS011;4154;48.810;9.012;2023-01-19T09:11:19;4.87;;;4.20;;
8225;SDS011;4154;48.810;9.012;2023-01-19T09:13:45;4.40;;;4.00;;
8225;SDS011;4154;48.810;9.012;2023-01-19T09:16:11;4.17;;;3.77;;
8225;SDS011;4154;48.810;9.012;2023-01-19T09:18:39;5.67;;;4.47;;
8225;SDS011;4154;48.810;9.012;2023-01-19T09:21:05;4.80;;;4.40;;
8225;SDS011;4154;48.810;9.012;2023-01-19T09:23:32;5.10;;;4.60;;
8225;SDS011;4154;48.810;9.012;2023-01-19T09:25:59;4.70;;;4.20;;
8225;SDS011;4154;48.810;9.012;2023-01-19T09:28:27;4.80;;;4.33;;
8225;SDS011;4154;48.810;9.012;2023-01-19T09:30:55;4.63;;;4.23;;
8225;SDS011;4154;48.810;9.012;2023-01-19T09:33:22;4.57;;;4.17;;
8225;SDS011;4154;48.810;9.012;2023-01-19T09:35:48;7.97;;;4.17;;
8225;SDS011;4154;48.810;9.012;2023-01-19T09:38:16;5.70;;;4.40;;
8225;SDS011;4154;48.810;9.012;2023-01-19T09:40:47;4.40;;;4.00;;
8225;SDS011;4154;48.810;9.012;2023-01-19T09:46:18;4.67;;;4.17;;
8225;SDS011;4154;48.810;9.012;2023-01-19T09:49:48;5.50;;;4.37;;
8225;SDS011;4154;48.810;9.012;2023-01-19T09:52:00;5.40;;;4.37;;
8225;SDS011;4154;48.810;9.012;2023-01-19T09:54:45;6.27;;;5.53;;
8225;SDS011;4154;48.810;9.012;2023-01-19T09:57:23;5.77;;;5.07;;
8225;SDS011;4154;48.810;9.012;2023-01-19T09:59:51;5.30;;;4.80;;
8225;SDS011;4154;48.810;9.012;2023-01-19T10:04:58;4.77;;;4.27;;
8225;SDS011;4154;48.810;9.012;2023-01-19T10:07:32;5.30;;;4.50;;
8225;SDS011;4154;48.810;9.012;2023-01-19T10:10:26;4.87;;;4.40;;
8225;SDS011;4154;48.810;9.012;2023-01-19T10:16:05;4.53;;;4.10;;
8225;SDS011;4154;48.810;9.012;2023-01-19T10:18:53;4.67;;;4.27;;
8225;SDS011;4154;48.810;9.012;2023-01-19T10:21:41;5.50;;;4.23;;
8225;SDS011;4154;48.810;9.012;2023-01-19T10:26:48;5.33;;;4.43;;
8225;SDS011;4154;48.810;9.012;2023-01-19T10:32:10;4.77;;;4.10;;
8225;SDS011;4154;48.810;9.012;2023-01-19T10:34:46;6.13;;;4.60;;
8225;SDS011;4154;48.810;9.012;2023-01-19T10:40:01;5.07;;;4.50;;
8225;SDS011;4154;48.810;9.012;2023-01-19T10:42:46;5.33;;;4.30;;
8225;SDS011;4154;48.810;9.012;2023-01-19T10:45:15;4.73;;;4.00;;
8225;SDS011;4154;48.810;9.012;2023-01-19T10:47:50;4.33;;;3.93;;
8225;SDS011;4154;48.810;9.012;2023-01-19T10:53:01;5.93;;;4.00;;
8225;SDS011;4154;48.810;9.012;2023-01-19T10:55:37;4.40;;;4.00;;
8225;SDS011;4154;48.810;9.012;2023-01-19T10:58:04;4.17;;;3.80;;
8225;SDS011;4154;48.810;9.012;2023-01-19T11:00:50;4.83;;;4.33;;
8225;SDS011;4154;48.810;9.012;2023-01-19T11:03:29;4.30;;;3.90;;
8225;SDS011;4154;48.810;9.012;2023-01-19T11:08:43;4.63;;;4.13;;
8225;SDS011;4154;48.810;9.012;2023-01-19T11:11:11;5.20;;;4.37;;
8225;SDS011;4154;48.810;9.012;2023-01-19T11:13:38;4.50;;;4.10;;
8225;SDS011;4154;48.810;9.012;2023-01-19T11:16:17;4.37;;;3.93;;
8225;SDS011;4154;48.810;9.012;2023-01-19T11:18:56;4.47;;;4.07;;
8225;SDS011;4154;48.810;9.012;2023-01-19T11:21:26;5.20;;;4.50;;
8225;SDS011;4154;48.810;9.012;2023-01-19T11:23:56;4.47;;;4.07;;
8225;SDS011;4154;48.810;9.012;2023-01-19T11:26:39;5.47;;;3.80;;
8225;SDS011;4154;48.810;9.012;2023-01-19T11:29:19;4.70;;;4.07;;
8225;SDS011;4154;48.810;9.012;2023-01-19T11:31:48;5.43;;;3.90;;
8225;SDS011;4154;48.810;9.012;2023-01-19T11:34:35;4.57;;;3.70;;
8225;SDS011;4154;48.810;9.012;2023-01-19T11:37:03;3.60;;;3.30;;
8225;SDS011;4154;48.810;9.012;2023-01-19T11:39:55;4.47;;;4.07;;
8225;SDS011;4154;48.810;9.012;2023-01-19T11:42:24;5.30;;;3.60;;
8225;SDS011;4154;48.810;9.012;2023-01-19T11:44:57;5.13;;;3.33;;
8225;SDS011;4154;48.810;9.012;2023-01-19T11:47:43;3.83;;;3.53;;
8225;SDS011;4154;48.810;9.012;2023-01-19T11:50:23;3.40;;;3.10;;
8225;SDS011;4154;48.810;9.012;2023-01-19T11:53:00;3.80;;;3.20;;
8225;SDS011;4154;48.810;9.012;2023-01-19T11:55:48;3.50;;;3.20;;
8225;SDS011;4154;48.810;9.012;2023-01-19T11:58:18;3.40;;;3.10;;
8225;SDS011;4154;48.810;9.012;2023-01-19T12:00:45;3.80;;;3.47;;
8225;SDS011;4154;48.810;9.012;2023-01-19T12:03:24;4.20;;;3.10;;
8225;SDS011;4154;48.810;9.012;2023-01-19T12:05:57;4.23;;;3.20;;
8225;SDS011;4154;48.810;9.012;2023-01-19T12:08:30;4.60;;;3.30;;
8225;SDS011;4154;48.810;9.012;2023-01-19T12:11:13;3.73;;;3.10;;
8225;SDS011;4154;48.810;9.012;2023-01-19T12:13:45;4.53;;;3.00;;
8225;SDS011;4154;48.810;9.012;2023-01-19T12:16:18;3.50;;;3.20;;
8225;SDS011;4154;48.810;9.012;2023-01-19T12:18:49;3.87;;;3.47;;
8225;SDS011;4154;48.810;9.012;2023-01-19T12:21:22;3.40;;;3.10;;
8225;SDS011;4154;48.810;9.012;2023-01-19T12:26:43;3.60;;;3.30;;
8225;SDS011;4154;48.810;9.012;2023-01-19T12:29:17;4.30;;;3.50;;
8225;SDS011;4154;48.810;9.012;2023-01-19T12:34:40;3.93;;;2.73;;
8225;SDS011;4154;48.810;9.012;2023-01-19T12:40:22;3.30;;;2.97;;
8225;SDS011;4154;48.810;9.012;2023-01-19T12:42:56;3.80;;;3.03;;
8225;SDS011;4154;48.810;9.012;2023-01-19T12:45:29;3.77;;;3.37;;
8225;SDS011;4154;48.810;9.012;2023-01-19T12:48:01;3.50;;;3.17;;
8225;SDS011;4154;48.810;9.012;2023-01-19T12:50:29;3.43;;;3.13;;
8225;SDS011;4154;48.810;9.012;2023-01-19T12:53:02;3.10;;;2.80;;
8225;SDS011;4154;48.810;9.012;2023-01-19T12:55:39;3.07;;;2.77;;
8225;SDS011;4154;48.810;9.012;2023-01-19T12:58:16;4.03;;;3.13;;
8225;SDS011;4154;48.810;9.012;2023-01-19T13:00:48;4.63;;;3.93;;
8225;SDS011;4154;48.810;9.012;2023-01-19T13:04:03;5.13;;;4.40;;
8225;SDS011;4154;48.810;9.012;2023-01-19T13:14:46;4.57;;;4.10;;
8225;SDS011;4154;48.810;9.012;2023-01-19T13:19:56;4.50;;;4.10;;
8225;SDS011;4154;48.810;9.012;2023-01-19T13:25:25;4.20;;;3.77;;
8225;SDS011;4154;48.810;9.012;2023-01-19T13:27:59;4.13;;;3.70;;
8225;SDS011;4154;48.810;9.012;2023-01-19T13:30:31;4.87;;;3.27;;
8225;SDS011;4154;48.810;9.012;2023-01-19T13:33:13;3.40;;;3.10;;
8225;SDS011;4154;48.810;9.012;2023-01-19T13:35:52;3.50;;;3.20;;
8225;SDS011;4154;48.810;9.012;2023-01-19T13:38:21;5.80;;;3.53;;
8225;SDS011;4154;48.810;9.012;2023-01-19T13:40:49;4.93;;;3.10;;
8225;SDS011;4154;48.810;9.012;2023-01-19T13:43:18;3.57;;;3.27;;
8225;SDS011;4154;48.810;9.012;2023-01-19T13:45:52;3.20;;;2.90;;
8225;SDS011;4154;48.810;9.012;2023-01-19T13:48:20;3.37;;;2.87;;
8225;SDS011;4154;48.810;9.012;2023-01-19T13:50:55;3.90;;;3.47;;
8225;SDS011;4154;48.810;9.012;2023-01-19T13:53:27;3.80;;;3.40;;
8225;SDS011;4154;48.810;9.012;2023-01-19T13:58:38;4.43;;;3.70;;
8225;SDS011;4154;48.810;9.012;2023-01-19T14:01:04;3.70;;;3.30;;
8225;SDS011;4154;48.810;9.012;2023-01-19T14:03:31;4.40;;;3.47;;
8225;SDS011;4154;48.810;9.012;2023-01-19T14:05:57;4.20;;;3.13;;
8225;SDS011;4154;48.810;9.012;2023-01-19T14:08:22;3.43;;;3.13;;
8225;SDS011;4154;48.810;9.012;2023-01-19T14:15:50;4.83;;;4.00;;
8225;SDS011;4154;48.810;9.012;2023-01-19T14:18:32;4.80;;;4.23;;
8225;SDS011;4154;48.810;9.012;2023-01-19T14:21:01;5.53;;;4.20;;
8225;SDS011;4154;48.810;9.012;2023-01-19T14:34:34;3.60;;;3.30;;
8225;SDS011;4154;48.810;9.012;2023-01-19T14:37:12;4.03;;;2.80;;
8225;SDS011;4154;48.810;9.012;2023-01-19T14:39:59;3.13;;;2.70;;
8225;SDS011;4154;48.810;9.012;2023-01-19T14:42:53;3.50;;;3.20;;
8225;SDS011;4154;48.810;9.012;2023-01-19T14:45:22;3.87;;;3.37;;
8225;SDS011;4154;48.810;9.012;2023-01-19T14:47:57;3.97;;;3.57;;
8225;SDS011;4154;48.810;9.012;2023-01-19T14:50:38;4.63;;;3.50;;
8225;SDS011;4154;48.810;9.012;2023-01-19T14:53:16;5.33;;;3.60;;
8225;SDS011;4154;48.810;9.012;2023-01-19T14:55:49;4.10;;;3.20;;
8225;SDS011;4154;48.810;9.012;2023-01-19T14:58:23;4.10;;;3.30;;
8225;SDS011;4154;48.810;9.012;2023-01-19T15:00:53;4.10;;;3.33;;
8225;SDS011;4154;48.810;9.012;2023-01-19T15:03:20;3.90;;;3.50;;
8225;SDS011;4154;48.810;9.012;2023-01-19T15:05:46;3.60;;;3.30;;
8225;SDS011;4154;48.810;9.012;2023-01-19T15:08:15;3.57;;;3.27;;
8225;SDS011;4154;48.810;9.012;2023-01-19T15:10:49;3.50;;;3.20;;
8225;SDS011;4154;48.810;9.012;2023-01-19T15:13:19;4.00;;;3.60;;
8225;SDS011;4154;48.810;9.012;2023-01-19T15:15:49;3.53;;;3.23;;
8225;SDS011;4154;48.810;9.012;2023-01-19T15:18:17;4.57;;;3.77;;
8225;SDS011;4154;48.810;9.012;2023-01-19T15:20:48;3.97;;;3.50;;
8225;SDS011;4154;48.810;9.012;2023-01-19T15:23:13;4.00;;;3.70;;
8225;SDS011;4154;48.810;9.012;2023-01-19T15:25:39;3.97;;;3.60;;
8225;SDS011;4154;48.810;9.012;2023-01-19T15:28:10;4.70;;;3.93;;
8225;SDS011;4154;48.810;9.012;2023-01-19T15:30:39;3.80;;;3.50;;
8225;SDS011;4154;48.810;9.012;2023-01-19T15:33:04;3.90;;;3.60;;
8225;SDS011;4154;48.810;9.012;2023-01-19T15:35:30;4.47;;;3.70;;
8225;SDS011;4154;48.810;9.012;2023-01-19T15:37:56;4.17;;;3.57;;
8225;SDS011;4154;48.810;9.012;2023-01-19T15:40:22;3.77;;;3.47;;
8225;SDS011;4154;48.810;9.012;2023-01-19T15:42:48;3.80;;;3.40;;
8225;SDS011;4154;48.810;9.012;2023-01-19T15:45:22;4.10;;;3.70;;
8225;SDS011;4154;48.810;9.012;2023-01-19T15:47:56;3.87;;;3.50;;
8225;SDS011;4154;48.810;9.012;2023-01-19T15:50:24;4.53;;;4.13;;
8225;SDS011;4154;48.810;9.012;2023-01-19T15:52:51;6.20;;;4.20;;
8225;SDS011;4154;48.810;9.012;2023-01-19T15:55:18;4.40;;;4.00;;
8225;SDS011;4154;48.810;9.012;2023-01-19T15:57:43;4.30;;;3.90;;
8225;SDS011;4154;48.810;9.012;2023-01-19T16:00:10;4.50;;;4.10;;
8225;SDS011;4154;48.810;9.012;2023-01-19T16:02:37;4.80;;;4.40;;
8225;SDS011;4154;48.810;9.012;2023-01-19T16:05:02;4.37;;;3.97;;
8225;SDS011;4154;48.810;9.012;2023-01-19T16:07:29;4.70;;;4.20;;
8225;SDS011;4154;48.810;9.012;2023-01-19T16:09:56;4.70;;;4.30;;
8225;SDS011;4154;48.810;9.012;2023-01-19T16:12:22;5.03;;;4.53;;
8225;SDS011;4154;48.810;9.012;2023-01-19T16:14:48;4.80;;;4.40;;
8225;SDS011;4154;48.810;9.012;2023-01-19T16:17:14;5.40;;;4.23;;
8225;SDS011;4154;48.810;9.012;2023-01-19T16:19:40;5.40;;;4.90;;
8225;SDS011;4154;48.810;9.012;2023-01-19T16:22:07;5.20;;;4.70;;
8225;SDS011;4154;48.810;9.012;2023-01-19T16:24:35;5.07;;;4.67;;
8225;SDS011;4154;48.810;9.012;2023-01-19T16:27:01;5.57;;;4.80;;
8225;SDS011;4154;48.810;9.012;2023-01-19T16:29:28;6.10;;;5.50;;
8225;SDS011;4154;48.810;9.012;2023-01-19T16:31:54;6.03;;;5.43;;
8225;SDS011;4154;48.810;9.012;2023-01-19T16:34:20;5.70;;;5.20;;
8225;SDS011;4154;48.810;9.012;2023-01-19T16:36:49;5.67;;;4.70;;
8225;SDS011;4154;48.810;9.012;2023-01-19T16:39:16;5.20;;;4.47;;
8225;SDS011;4154;48.810;9.012;2023-01-19T16:41:42;4.63;;;4.23;;
8225;SDS011;4154;48.810;9.012;2023-01-19T16:44:10;4.77;;;4.37;;
8225;SDS011;4154;48.810;9.012;2023-01-19T16:46:38;5.13;;;4.63;;